KLSV/LSV METAR and TAF weather

Enter ICAO airport designator
Station Type Date Time Source
KLSV METAR 2020/08/11 17:58 UTC NOAA

KLSV 111758Z AUTO 13010KT 10SM FEW220 38/M02 A2988 RMK AO2 SLP089 T03791021 10379 20257 55003 $


Station Type Date Time Source
KLSV Decoded METAR 2020/08/11 17:58 UTC NOAA

Nellis Air Force Base, NV, United States (KLSV) 36-14N 115-02W
Aug 11, 2020 - 01:58 PM EDT / 2020.08.11 1758 UTC
Wind: from the SE (130 degrees) at 12 MPH (10 KT):0
Visibility: 10 mile(s):0
Sky conditions: mostly clear
Temperature: 100.2 F (37.9 C)
Dew Point: 28.2 F (-2.1 C)
Relative Humidity: 7%
Pressure (altimeter): 29.88 in. Hg (1011 hPa)
Pressure tendency: 0.01 inches (0.3 hPa) lower than three hours ago
ob: KLSV 111758Z AUTO 13010KT 10SM FEW220 38/M02 A2988 RMK AO2 SLP089 T03791021 10379 20257 55003
cycle: 18

Station Type Date Time Source
KLSV TAF 2020/08/11 15:57 UTC NOAA

TAF TAF KLSV 111500Z 1115/1221 VRB06KT 9999 SKC QNH2982INS
BECMG 1118/1119 18010G18KT 9999 FEW150 QNH2976INS
TEMPO 1120/1201 21015G28KT 520009
BECMG 1203/1204 30012KT 9999 SKC QNH2977INS
BECMG 1210/1211 VRB06KT 9999 SKC QNH2982INS
BECMG 1218/1219 19012G18KT 9999 SKC QNH2982INS TX42/1123Z TN26/1213Z

Example: see airport list